Etusivu
METAR-TAF:

METAR-TAF

Lentoasemat :

Blue River, Brittiläinen Kolumbia, Kanada

Leveyspiiri: 52-08N, Pituuspiiri: 119-18W, korkeus merenpinnasta: 679 m

Tämänhetkinen sää

Tämä raportti tehtiin 1 tunti ja 20 minuuttia sitten, kello 13.00 UTC
tyyntä
Lämpötila -7°C
Kosteus 100%
Ilmanpaine 1027 hPa
Näkyvyys: 24.1 km
Muutamia pilviä 18000 ft:n korkeudessa
Muutamia pilviä 28000 ft:n korkeudessa

METAR: CYCP 251300Z 00000KT 15SM FEW180 FEW280 M07/M07 A3033 RMK AC1CI1 FROIN SLP301

Aika: 07:20 (14:20 UTC)


TAF: puuttuu

Säähavainnot ja -ennusteet yli 4000 lentoasemalta (METAR- ja TAF-raportit).

Käytössä olevat sääasemat on merkitty karttaan keltaisilla ja punaisilla pisteillä.

Aseta hiiri pisteen päälle nähdäksesi sääaseman nimen.

Klikkaa sitten nähdäksesi säähavainnot ja -ennusteet.

Kartan vaihtaminen: klikkaa mustalla rastilla varustettuja vihreitä pisteitä, niin voit zoomata sisään; viivalla varustettua vihreää pistettä, niin voit zoomata ulos tai vihreitä nuolia, niin pääset viereisille kartoille.


METAR-TAF: